sensor_id;sensor_type;location;lat;lon;timestamp;P1;durP1;ratioP1;P2;durP2;ratioP2
9214;SDS011;4642;51.364;6.788;2023-06-19T00:01:18;4.80;;;4.30;;
9214;SDS011;4642;51.364;6.788;2023-06-19T00:03:44;5.17;;;4.53;;
9214;SDS011;4642;51.364;6.788;2023-06-19T00:06:10;5.73;;;4.83;;
9214;SDS011;4642;51.364;6.788;2023-06-19T00:08:37;4.33;;;3.93;;
9214;SDS011;4642;51.364;6.788;2023-06-19T00:11:06;6.77;;;4.50;;
9214;SDS011;4642;51.364;6.788;2023-06-19T00:13:32;6.13;;;4.77;;
9214;SDS011;4642;51.364;6.788;2023-06-19T00:15:58;4.83;;;4.13;;
9214;SDS011;4642;51.364;6.788;2023-06-19T00:18:25;7.03;;;4.50;;
9214;SDS011;4642;51.364;6.788;2023-06-19T00:20:51;8.40;;;3.93;;
9214;SDS011;4642;51.364;6.788;2023-06-19T00:23:19;6.10;;;4.20;;
9214;SDS011;4642;51.364;6.788;2023-06-19T00:25:45;4.73;;;4.20;;
9214;SDS011;4642;51.364;6.788;2023-06-19T00:28:10;5.50;;;4.27;;
9214;SDS011;4642;51.364;6.788;2023-06-19T00:30:39;8.73;;;4.23;;
9214;SDS011;4642;51.364;6.788;2023-06-19T00:33:06;4.20;;;3.80;;
9214;SDS011;4642;51.364;6.788;2023-06-19T00:35:32;7.03;;;4.60;;
9214;SDS011;4642;51.364;6.788;2023-06-19T00:37:58;4.57;;;4.10;;
9214;SDS011;4642;51.364;6.788;2023-06-19T00:40:27;5.00;;;4.43;;
9214;SDS011;4642;51.364;6.788;2023-06-19T00:42:54;4.77;;;4.33;;
9214;SDS011;4642;51.364;6.788;2023-06-19T00:45:21;4.57;;;4.17;;
9214;SDS011;4642;51.364;6.788;2023-06-19T00:47:46;4.80;;;4.30;;
9214;SDS011;4642;51.364;6.788;2023-06-19T00:50:12;5.50;;;4.50;;
9214;SDS011;4642;51.364;6.788;2023-06-19T00:52:38;4.67;;;4.17;;
9214;SDS011;4642;51.364;6.788;2023-06-19T00:55:05;5.57;;;3.87;;
9214;SDS011;4642;51.364;6.788;2023-06-19T00:57:32;4.40;;;4.00;;
9214;SDS011;4642;51.364;6.788;2023-06-19T00:59:58;4.10;;;3.70;;
9214;SDS011;4642;51.364;6.788;2023-06-19T01:02:24;4.23;;;3.83;;
9214;SDS011;4642;51.364;6.788;2023-06-19T01:04:51;5.77;;;3.80;;
9214;SDS011;4642;51.364;6.788;2023-06-19T01:07:28;4.63;;;4.13;;
9214;SDS011;4642;51.364;6.788;2023-06-19T01:10:16;4.87;;;3.93;;
9214;SDS011;4642;51.364;6.788;2023-06-19T01:12:51;4.50;;;4.10;;
9214;SDS011;4642;51.364;6.788;2023-06-19T01:15:21;6.13;;;4.50;;
9214;SDS011;4642;51.364;6.788;2023-06-19T01:17:48;4.50;;;4.10;;
9214;SDS011;4642;51.364;6.788;2023-06-19T01:20:14;6.30;;;4.23;;
9214;SDS011;4642;51.364;6.788;2023-06-19T01:22:41;4.37;;;3.97;;
9214;SDS011;4642;51.364;6.788;2023-06-19T01:25:09;4.50;;;3.93;;
9214;SDS011;4642;51.364;6.788;2023-06-19T01:27:36;4.40;;;3.87;;
9214;SDS011;4642;51.364;6.788;2023-06-19T01:30:02;4.50;;;4.10;;
9214;SDS011;4642;51.364;6.788;2023-06-19T01:32:31;5.70;;;4.33;;
9214;SDS011;4642;51.364;6.788;2023-06-19T01:35:12;5.10;;;4.47;;
9214;SDS011;4642;51.364;6.788;2023-06-19T01:37:40;5.00;;;4.33;;
9214;SDS011;4642;51.364;6.788;2023-06-19T01:40:08;7.40;;;4.20;;
9214;SDS011;4642;51.364;6.788;2023-06-19T01:42:37;5.73;;;4.30;;
9214;SDS011;4642;51.364;6.788;2023-06-19T01:45:04;4.97;;;4.07;;
9214;SDS011;4642;51.364;6.788;2023-06-19T01:47:30;4.57;;;4.17;;
9214;SDS011;4642;51.364;6.788;2023-06-19T01:49:56;4.37;;;3.97;;
9214;SDS011;4642;51.364;6.788;2023-06-19T01:52:23;4.47;;;4.07;;
9214;SDS011;4642;51.364;6.788;2023-06-19T01:54:49;5.40;;;4.37;;
9214;SDS011;4642;51.364;6.788;2023-06-19T01:57:15;6.20;;;4.23;;
9214;SDS011;4642;51.364;6.788;2023-06-19T01:59:41;4.43;;;4.03;;
9214;SDS011;4642;51.364;6.788;2023-06-19T02:02:07;5.43;;;4.17;;
9214;SDS011;4642;51.364;6.788;2023-06-19T02:04:33;5.23;;;4.77;;
9214;SDS011;4642;51.364;6.788;2023-06-19T02:06:58;4.53;;;4.13;;
9214;SDS011;4642;51.364;6.788;2023-06-19T02:09:24;6.30;;;4.20;;
9214;SDS011;4642;51.364;6.788;2023-06-19T02:11:49;6.60;;;4.23;;
9214;SDS011;4642;51.364;6.788;2023-06-19T02:14:15;4.63;;;4.13;;
9214;SDS011;4642;51.364;6.788;2023-06-19T02:16:40;4.13;;;3.67;;
9214;SDS011;4642;51.364;6.788;2023-06-19T02:19:08;5.80;;;4.17;;
9214;SDS011;4642;51.364;6.788;2023-06-19T02:21:37;7.00;;;4.70;;
9214;SDS011;4642;51.364;6.788;2023-06-19T02:24:03;4.70;;;4.20;;
9214;SDS011;4642;51.364;6.788;2023-06-19T02:26:29;4.50;;;4.10;;
9214;SDS011;4642;51.364;6.788;2023-06-19T02:28:57;5.30;;;3.70;;
9214;SDS011;4642;51.364;6.788;2023-06-19T02:31:23;5.10;;;4.47;;
9214;SDS011;4642;51.364;6.788;2023-06-19T02:33:49;4.77;;;4.23;;
9214;SDS011;4642;51.364;6.788;2023-06-19T02:36:15;5.77;;;4.57;;
9214;SDS011;4642;51.364;6.788;2023-06-19T02:38:44;5.10;;;4.60;;
9214;SDS011;4642;51.364;6.788;2023-06-19T02:41:13;4.43;;;4.03;;
9214;SDS011;4642;51.364;6.788;2023-06-19T02:43:40;7.27;;;4.30;;
9214;SDS011;4642;51.364;6.788;2023-06-19T02:46:07;4.57;;;4.07;;
9214;SDS011;4642;51.364;6.788;2023-06-19T02:48:32;4.63;;;4.23;;
9214;SDS011;4642;51.364;6.788;2023-06-19T02:50:58;10.27;;;4.37;;
9214;SDS011;4642;51.364;6.788;2023-06-19T02:53:23;6.97;;;4.63;;
9214;SDS011;4642;51.364;6.788;2023-06-19T02:55:49;5.67;;;4.73;;
9214;SDS011;4642;51.364;6.788;2023-06-19T02:58:14;4.67;;;4.23;;
9214;SDS011;4642;51.364;6.788;2023-06-19T03:00:40;5.13;;;4.63;;
9214;SDS011;4642;51.364;6.788;2023-06-19T03:03:05;6.63;;;4.47;;
9214;SDS011;4642;51.364;6.788;2023-06-19T03:05:31;5.10;;;4.20;;
9214;SDS011;4642;51.364;6.788;2023-06-19T03:07:56;4.70;;;4.20;;
9214;SDS011;4642;51.364;6.788;2023-06-19T03:10:22;5.37;;;4.33;;
9214;SDS011;4642;51.364;6.788;2023-06-19T03:12:48;5.27;;;4.10;;
9214;SDS011;4642;51.364;6.788;2023-06-19T03:15:13;4.90;;;3.87;;
9214;SDS011;4642;51.364;6.788;2023-06-19T03:17:39;7.37;;;4.00;;
9214;SDS011;4642;51.364;6.788;2023-06-19T03:20:04;4.13;;;3.43;;
9214;SDS011;4642;51.364;6.788;2023-06-19T03:22:31;4.27;;;3.67;;
9214;SDS011;4642;51.364;6.788;2023-06-19T03:24:56;3.83;;;3.47;;
9214;SDS011;4642;51.364;6.788;2023-06-19T03:27:22;3.60;;;3.27;;
9214;SDS011;4642;51.364;6.788;2023-06-19T03:29:51;4.43;;;3.63;;
9214;SDS011;4642;51.364;6.788;2023-06-19T03:32:17;4.57;;;3.50;;
9214;SDS011;4642;51.364;6.788;2023-06-19T03:34:44;4.73;;;3.53;;
9214;SDS011;4642;51.364;6.788;2023-06-19T03:37:09;5.93;;;3.23;;
9214;SDS011;4642;51.364;6.788;2023-06-19T03:39:35;5.53;;;2.90;;
9214;SDS011;4642;51.364;6.788;2023-06-19T03:42:00;4.93;;;3.57;;
9214;SDS011;4642;51.364;6.788;2023-06-19T03:44:26;5.03;;;3.47;;
9214;SDS011;4642;51.364;6.788;2023-06-19T03:46:52;3.67;;;3.30;;
9214;SDS011;4642;51.364;6.788;2023-06-19T03:49:17;3.20;;;2.87;;
9214;SDS011;4642;51.364;6.788;2023-06-19T03:51:43;5.23;;;3.10;;
9214;SDS011;4642;51.364;6.788;2023-06-19T03:54:08;3.40;;;3.07;;
9214;SDS011;4642;51.364;6.788;2023-06-19T03:56:34;3.83;;;3.00;;
9214;SDS011;4642;51.364;6.788;2023-06-19T03:58:59;4.13;;;3.37;;
9214;SDS011;4642;51.364;6.788;2023-06-19T04:01:25;3.20;;;2.40;;
9214;SDS011;4642;51.364;6.788;2023-06-19T04:03:51;3.77;;;3.10;;
9214;SDS011;4642;51.364;6.788;2023-06-19T04:06:16;2.80;;;2.50;;
9214;SDS011;4642;51.364;6.788;2023-06-19T04:08:42;4.27;;;3.10;;
9214;SDS011;4642;51.364;6.788;2023-06-19T04:11:08;8.30;;;2.80;;
9214;SDS011;4642;51.364;6.788;2023-06-19T04:13:33;6.23;;;2.83;;
9214;SDS011;4642;51.364;6.788;2023-06-19T04:15:59;2.80;;;2.57;;
9214;SDS011;4642;51.364;6.788;2023-06-19T04:18:24;4.70;;;2.57;;
9214;SDS011;4642;51.364;6.788;2023-06-19T04:20:52;3.83;;;2.40;;
9214;SDS011;4642;51.364;6.788;2023-06-19T04:23:17;3.50;;;2.60;;
9214;SDS011;4642;51.364;6.788;2023-06-19T04:25:43;3.67;;;2.50;;
9214;SDS011;4642;51.364;6.788;2023-06-19T04:28:08;3.17;;;2.50;;
9214;SDS011;4642;51.364;6.788;2023-06-19T04:30:34;3.83;;;2.20;;
9214;SDS011;4642;51.364;6.788;2023-06-19T04:32:59;2.70;;;2.50;;
9214;SDS011;4642;51.364;6.788;2023-06-19T04:35:25;3.73;;;2.63;;
9214;SDS011;4642;51.364;6.788;2023-06-19T04:37:51;3.10;;;2.43;;
9214;SDS011;4642;51.364;6.788;2023-06-19T04:40:17;4.47;;;2.57;;
9214;SDS011;4642;51.364;6.788;2023-06-19T04:42:43;3.87;;;2.77;;
9214;SDS011;4642;51.364;6.788;2023-06-19T04:45:09;3.03;;;2.63;;
9214;SDS011;4642;51.364;6.788;2023-06-19T04:47:35;7.57;;;3.00;;
9214;SDS011;4642;51.364;6.788;2023-06-19T04:50:00;4.10;;;2.80;;
9214;SDS011;4642;51.364;6.788;2023-06-19T04:52:26;3.47;;;2.60;;
9214;SDS011;4642;51.364;6.788;2023-06-19T04:54:51;5.13;;;3.07;;
9214;SDS011;4642;51.364;6.788;2023-06-19T04:57:17;4.27;;;2.60;;
9214;SDS011;4642;51.364;6.788;2023-06-19T04:59:43;3.27;;;2.73;;
9214;SDS011;4642;51.364;6.788;2023-06-19T05:02:11;4.50;;;2.70;;
9214;SDS011;4642;51.364;6.788;2023-06-19T05:04:37;3.00;;;2.70;;
9214;SDS011;4642;51.364;6.788;2023-06-19T05:07:02;4.53;;;2.70;;
9214;SDS011;4642;51.364;6.788;2023-06-19T05:09:28;3.93;;;2.80;;
9214;SDS011;4642;51.364;6.788;2023-06-19T05:11:54;2.53;;;2.33;;
9214;SDS011;4642;51.364;6.788;2023-06-19T05:14:19;4.40;;;2.70;;
9214;SDS011;4642;51.364;6.788;2023-06-19T05:16:45;2.93;;;2.63;;
9214;SDS011;4642;51.364;6.788;2023-06-19T05:19:11;3.50;;;2.80;;
9214;SDS011;4642;51.364;6.788;2023-06-19T05:21:36;3.07;;;2.60;;
9214;SDS011;4642;51.364;6.788;2023-06-19T05:24:02;4.30;;;2.63;;
9214;SDS011;4642;51.364;6.788;2023-06-19T05:26:28;2.50;;;2.30;;
9214;SDS011;4642;51.364;6.788;2023-06-19T05:28:54;6.57;;;2.60;;
9214;SDS011;4642;51.364;6.788;2023-06-19T05:31:20;2.77;;;2.23;;
9214;SDS011;4642;51.364;6.788;2023-06-19T05:33:45;3.63;;;2.43;;
9214;SDS011;4642;51.364;6.788;2023-06-19T05:36:11;3.17;;;2.50;;
9214;SDS011;4642;51.364;6.788;2023-06-19T05:38:36;2.40;;;2.20;;
9214;SDS011;4642;51.364;6.788;2023-06-19T05:41:02;5.77;;;2.40;;
9214;SDS011;4642;51.364;6.788;2023-06-19T05:43:28;3.73;;;2.57;;
9214;SDS011;4642;51.364;6.788;2023-06-19T05:45:54;3.70;;;2.47;;
9214;SDS011;4642;51.364;6.788;2023-06-19T05:48:21;5.20;;;2.33;;
9214;SDS011;4642;51.364;6.788;2023-06-19T05:50:46;2.27;;;2.07;;
9214;SDS011;4642;51.364;6.788;2023-06-19T05:53:12;3.40;;;2.20;;
9214;SDS011;4642;51.364;6.788;2023-06-19T05:55:37;2.37;;;2.00;;
9214;SDS011;4642;51.364;6.788;2023-06-19T05:58:03;3.83;;;2.13;;
9214;SDS011;4642;51.364;6.788;2023-06-19T06:00:29;2.60;;;1.87;;
9214;SDS011;4642;51.364;6.788;2023-06-19T06:02:58;3.83;;;2.30;;
9214;SDS011;4642;51.364;6.788;2023-06-19T06:05:25;2.80;;;2.00;;
9214;SDS011;4642;51.364;6.788;2023-06-19T06:07:51;3.27;;;2.13;;
9214;SDS011;4642;51.364;6.788;2023-06-19T06:10:19;4.17;;;2.20;;
9214;SDS011;4642;51.364;6.788;2023-06-19T06:12:45;5.57;;;1.97;;
9214;SDS011;4642;51.364;6.788;2023-06-19T06:15:11;2.17;;;1.97;;
9214;SDS011;4642;51.364;6.788;2023-06-19T06:17:36;2.00;;;1.80;;
9214;SDS011;4642;51.364;6.788;2023-06-19T06:20:02;2.83;;;2.00;;
9214;SDS011;4642;51.364;6.788;2023-06-19T06:22:34;3.77;;;1.77;;
9214;SDS011;4642;51.364;6.788;2023-06-19T06:24:59;3.53;;;1.97;;
9214;SDS011;4642;51.364;6.788;2023-06-19T06:27:25;3.00;;;1.93;;
9214;SDS011;4642;51.364;6.788;2023-06-19T06:29:51;2.43;;;1.90;;
9214;SDS011;4642;51.364;6.788;2023-06-19T06:32:17;2.23;;;2.03;;
9214;SDS011;4642;51.364;6.788;2023-06-19T06:34:43;2.00;;;1.80;;
9214;SDS011;4642;51.364;6.788;2023-06-19T06:37:08;3.50;;;2.00;;
9214;SDS011;4642;51.364;6.788;2023-06-19T06:39:34;3.03;;;2.10;;
9214;SDS011;4642;51.364;6.788;2023-06-19T06:41:59;2.73;;;2.00;;
9214;SDS011;4642;51.364;6.788;2023-06-19T06:44:25;2.87;;;2.27;;
9214;SDS011;4642;51.364;6.788;2023-06-19T06:46:51;2.40;;;2.20;;
9214;SDS011;4642;51.364;6.788;2023-06-19T06:49:17;3.40;;;1.90;;
9214;SDS011;4642;51.364;6.788;2023-06-19T06:51:42;2.53;;;1.77;;
9214;SDS011;4642;51.364;6.788;2023-06-19T06:54:08;2.07;;;1.87;;
9214;SDS011;4642;51.364;6.788;2023-06-19T06:56:34;4.07;;;2.00;;
9214;SDS011;4642;51.364;6.788;2023-06-19T06:59:01;4.53;;;2.30;;
9214;SDS011;4642;51.364;6.788;2023-06-19T07:01:26;2.40;;;1.97;;
9214;SDS011;4642;51.364;6.788;2023-06-19T07:03:52;9.70;;;2.50;;
9214;SDS011;4642;51.364;6.788;2023-06-19T07:06:18;2.70;;;2.13;;
9214;SDS011;4642;51.364;6.788;2023-06-19T07:08:44;4.47;;;2.10;;
9214;SDS011;4642;51.364;6.788;2023-06-19T07:11:12;2.13;;;1.90;;
9214;SDS011;4642;51.364;6.788;2023-06-19T07:13:38;3.27;;;2.13;;
9214;SDS011;4642;51.364;6.788;2023-06-19T07:16:03;6.43;;;2.40;;
9214;SDS011;4642;51.364;6.788;2023-06-19T07:18:30;3.43;;;1.90;;
9214;SDS011;4642;51.364;6.788;2023-06-19T07:20:55;3.60;;;2.23;;
9214;SDS011;4642;51.364;6.788;2023-06-19T07:23:20;2.77;;;2.17;;
9214;SDS011;4642;51.364;6.788;2023-06-19T07:25:46;4.53;;;2.53;;
9214;SDS011;4642;51.364;6.788;2023-06-19T07:28:12;3.40;;;2.77;;
9214;SDS011;4642;51.364;6.788;2023-06-19T07:30:38;4.33;;;2.23;;
9214;SDS011;4642;51.364;6.788;2023-06-19T07:33:04;3.53;;;2.27;;
9214;SDS011;4642;51.364;6.788;2023-06-19T07:35:30;5.50;;;2.70;;
9214;SDS011;4642;51.364;6.788;2023-06-19T07:37:55;9.17;;;2.60;;
9214;SDS011;4642;51.364;6.788;2023-06-19T07:40:21;6.47;;;2.40;;
9214;SDS011;4642;51.364;6.788;2023-06-19T07:42:46;2.87;;;2.27;;
9214;SDS011;4642;51.364;6.788;2023-06-19T07:45:12;4.43;;;2.40;;
9214;SDS011;4642;51.364;6.788;2023-06-19T07:47:38;3.57;;;1.80;;
9214;SDS011;4642;51.364;6.788;2023-06-19T07:50:03;3.27;;;2.53;;
9214;SDS011;4642;51.364;6.788;2023-06-19T07:52:29;3.20;;;1.83;;
9214;SDS011;4642;51.364;6.788;2023-06-19T07:54:56;2.70;;;1.73;;
9214;SDS011;4642;51.364;6.788;2023-06-19T07:57:23;2.17;;;1.73;;
9214;SDS011;4642;51.364;6.788;2023-06-19T07:59:49;2.00;;;1.60;;
9214;SDS011;4642;51.364;6.788;2023-06-19T08:02:15;3.47;;;1.60;;
9214;SDS011;4642;51.364;6.788;2023-06-19T08:04:41;2.97;;;1.90;;
9214;SDS011;4642;51.364;6.788;2023-06-19T08:07:07;2.43;;;1.90;;
9214;SDS011;4642;51.364;6.788;2023-06-19T08:09:32;6.37;;;2.03;;
9214;SDS011;4642;51.364;6.788;2023-06-19T08:11:58;6.30;;;2.37;;
9214;SDS011;4642;51.364;6.788;2023-06-19T08:14:24;2.87;;;2.10;;
9214;SDS011;4642;51.364;6.788;2023-06-19T08:16:49;2.77;;;2.33;;
9214;SDS011;4642;51.364;6.788;2023-06-19T08:19:15;3.33;;;2.10;;
9214;SDS011;4642;51.364;6.788;2023-06-19T08:21:40;2.43;;;2.20;;
9214;SDS011;4642;51.364;6.788;2023-06-19T08:24:06;2.53;;;2.30;;
9214;SDS011;4642;51.364;6.788;2023-06-19T08:26:31;3.97;;;2.47;;
9214;SDS011;4642;51.364;6.788;2023-06-19T08:28:57;5.37;;;2.00;;
9214;SDS011;4642;51.364;6.788;2023-06-19T08:31:22;2.67;;;2.13;;
9214;SDS011;4642;51.364;6.788;2023-06-19T08:33:53;3.57;;;2.30;;
9214;SDS011;4642;51.364;6.788;2023-06-19T08:36:22;4.43;;;2.70;;
9214;SDS011;4642;51.364;6.788;2023-06-19T08:38:48;2.40;;;2.20;;
9214;SDS011;4642;51.364;6.788;2023-06-19T08:41:18;3.47;;;2.40;;
9214;SDS011;4642;51.364;6.788;2023-06-19T08:43:44;2.90;;;2.57;;
9214;SDS011;4642;51.364;6.788;2023-06-19T08:46:12;2.87;;;2.43;;
9214;SDS011;4642;51.364;6.788;2023-06-19T08:48:42;4.73;;;2.30;;
9214;SDS011;4642;51.364;6.788;2023-06-19T08:51:08;3.33;;;2.20;;
9214;SDS011;4642;51.364;6.788;2023-06-19T08:53:35;3.77;;;2.50;;
9214;SDS011;4642;51.364;6.788;2023-06-19T08:56:08;3.00;;;2.57;;
9214;SDS011;4642;51.364;6.788;2023-06-19T08:58:34;2.77;;;2.37;;
9214;SDS011;4642;51.364;6.788;2023-06-19T09:01:00;3.47;;;2.53;;
9214;SDS011;4642;51.364;6.788;2023-06-19T09:03:25;4.10;;;2.40;;
9214;SDS011;4642;51.364;6.788;2023-06-19T09:05:51;6.43;;;2.40;;
9214;SDS011;4642;51.364;6.788;2023-06-19T09:08:17;2.80;;;2.50;;
9214;SDS011;4642;51.364;6.788;2023-06-19T09:11:02;2.60;;;2.40;;
9214;SDS011;4642;51.364;6.788;2023-06-19T09:13:29;3.57;;;2.60;;
9214;SDS011;4642;51.364;6.788;2023-06-19T09:16:00;4.80;;;2.27;;
9214;SDS011;4642;51.364;6.788;2023-06-19T09:18:31;2.57;;;2.30;;
9214;SDS011;4642;51.364;6.788;2023-06-19T09:21:16;4.73;;;2.47;;
9214;SDS011;4642;51.364;6.788;2023-06-19T09:23:43;2.53;;;2.33;;
9214;SDS011;4642;51.364;6.788;2023-06-19T09:26:09;4.43;;;2.00;;
9214;SDS011;4642;51.364;6.788;2023-06-19T09:28:39;2.70;;;2.30;;
9214;SDS011;4642;51.364;6.788;2023-06-19T09:31:07;4.73;;;1.80;;
9214;SDS011;4642;51.364;6.788;2023-06-19T09:33:34;5.00;;;2.50;;
9214;SDS011;4642;51.364;6.788;2023-06-19T09:36:00;3.57;;;2.57;;
9214;SDS011;4642;51.364;6.788;2023-06-19T09:38:28;4.10;;;2.73;;
9214;SDS011;4642;51.364;6.788;2023-06-19T09:40:55;4.87;;;2.37;;
9214;SDS011;4642;51.364;6.788;2023-06-19T09:43:24;3.77;;;2.50;;
9214;SDS011;4642;51.364;6.788;2023-06-19T09:45:51;4.13;;;2.83;;
9214;SDS011;4642;51.364;6.788;2023-06-19T09:48:22;3.30;;;2.07;;
9214;SDS011;4642;51.364;6.788;2023-06-19T09:51:07;5.67;;;2.73;;
9214;SDS011;4642;51.364;6.788;2023-06-19T09:53:53;4.53;;;2.63;;
9214;SDS011;4642;51.364;6.788;2023-06-19T09:56:19;3.33;;;2.80;;
9214;SDS011;4642;51.364;6.788;2023-06-19T09:58:46;4.63;;;2.70;;
9214;SDS011;4642;51.364;6.788;2023-06-19T10:01:14;4.00;;;2.70;;
9214;SDS011;4642;51.364;6.788;2023-06-19T10:03:43;4.93;;;2.33;;
9214;SDS011;4642;51.364;6.788;2023-06-19T10:06:12;4.57;;;2.60;;
9214;SDS011;4642;51.364;6.788;2023-06-19T10:08:40;5.90;;;2.60;;
9214;SDS011;4642;51.364;6.788;2023-06-19T10:11:07;4.27;;;2.37;;
9214;SDS011;4642;51.364;6.788;2023-06-19T10:13:34;4.43;;;3.13;;
9214;SDS011;4642;51.364;6.788;2023-06-19T10:16:01;3.87;;;2.90;;
9214;SDS011;4642;51.364;6.788;2023-06-19T10:18:27;5.13;;;2.93;;
9214;SDS011;4642;51.364;6.788;2023-06-19T10:20:53;2.93;;;2.50;;
9214;SDS011;4642;51.364;6.788;2023-06-19T10:23:21;4.07;;;2.67;;
9214;SDS011;4642;51.364;6.788;2023-06-19T10:25:49;4.80;;;3.03;;
9214;SDS011;4642;51.364;6.788;2023-06-19T10:28:20;3.40;;;2.70;;
9214;SDS011;4642;51.364;6.788;2023-06-19T10:30:57;3.40;;;3.10;;
9214;SDS011;4642;51.364;6.788;2023-06-19T10:33:29;4.23;;;2.77;;
9214;SDS011;4642;51.364;6.788;2023-06-19T10:36:13;3.73;;;3.07;;
9214;SDS011;4642;51.364;6.788;2023-06-19T10:38:40;4.10;;;2.80;;
9214;SDS011;4642;51.364;6.788;2023-06-19T10:41:06;4.47;;;2.77;;
9214;SDS011;4642;51.364;6.788;2023-06-19T10:43:40;4.33;;;3.07;;
9214;SDS011;4642;51.364;6.788;2023-06-19T10:46:05;5.17;;;3.10;;
9214;SDS011;4642;51.364;6.788;2023-06-19T10:48:31;4.00;;;2.70;;
9214;SDS011;4642;51.364;6.788;2023-06-19T10:50:57;5.22;;;3.30;;
9214;SDS011;4642;51.364;6.788;2023-06-19T10:53:23;4.07;;;3.22;;
9214;SDS011;4642;51.364;6.788;2023-06-19T10:55:55;7.57;;;3.20;;
9214;SDS011;4642;51.364;6.788;2023-06-19T10:58:26;3.67;;;3.13;;
9214;SDS011;4642;51.364;6.788;2023-06-19T11:00:52;3.38;;;2.72;;
9214;SDS011;4642;51.364;6.788;2023-06-19T11:03:18;4.30;;;3.17;;
9214;SDS011;4642;51.364;6.788;2023-06-19T11:05:44;5.22;;;3.70;;
9214;SDS011;4642;51.364;6.788;2023-06-19T11:08:10;8.05;;;3.00;;
9214;SDS011;4642;51.364;6.788;2023-06-19T11:10:41;5.35;;;3.60;;
9214;SDS011;4642;51.364;6.788;2023-06-19T11:13:07;4.63;;;3.13;;
9214;SDS011;4642;51.364;6.788;2023-06-19T11:15:38;4.45;;;3.20;;
9214;SDS011;4642;51.364;6.788;2023-06-19T11:18:03;5.65;;;3.30;;
9214;SDS011;4642;51.364;6.788;2023-06-19T11:20:29;4.82;;;3.63;;
9214;SDS011;4642;51.364;6.788;2023-06-19T11:22:59;5.18;;;3.50;;
9214;SDS011;4642;51.364;6.788;2023-06-19T11:25:38;4.03;;;3.15;;
9214;SDS011;4642;51.364;6.788;2023-06-19T11:28:14;4.60;;;3.50;;
9214;SDS011;4642;51.364;6.788;2023-06-19T11:30:47;4.38;;;3.67;;
9214;SDS011;4642;51.364;6.788;2023-06-19T11:33:16;5.35;;;3.30;;
9214;SDS011;4642;51.364;6.788;2023-06-19T11:35:47;3.72;;;3.38;;
9214;SDS011;4642;51.364;6.788;2023-06-19T11:38:21;3.92;;;3.60;;
9214;SDS011;4642;51.364;6.788;2023-06-19T11:40:48;3.58;;;3.08;;
9214;SDS011;4642;51.364;6.788;2023-06-19T11:43:26;3.90;;;3.40;;
9214;SDS011;4642;51.364;6.788;2023-06-19T11:45:53;4.50;;;3.40;;
9214;SDS011;4642;51.364;6.788;2023-06-19T11:48:24;5.85;;;3.80;;
9214;SDS011;4642;51.364;6.788;2023-06-19T11:50:50;4.47;;;3.60;;
9214;SDS011;4642;51.364;6.788;2023-06-19T11:53:17;4.70;;;3.08;;
9214;SDS011;4642;51.364;6.788;2023-06-19T11:55:47;4.95;;;3.70;;
9214;SDS011;4642;51.364;6.788;2023-06-19T11:58:13;6.00;;;3.53;;
9214;SDS011;4642;51.364;6.788;2023-06-19T12:00:40;4.32;;;3.90;;
9214;SDS011;4642;51.364;6.788;2023-06-19T12:03:06;4.32;;;3.65;;
9214;SDS011;4642;51.364;6.788;2023-06-19T12:05:32;10.27;;;4.03;;
9214;SDS011;4642;51.364;6.788;2023-06-19T12:07:57;6.25;;;3.70;;
9214;SDS011;4642;51.364;6.788;2023-06-19T12:10:23;6.00;;;3.60;;
9214;SDS011;4642;51.364;6.788;2023-06-19T12:12:48;5.55;;;3.60;;
9214;SDS011;4642;51.364;6.788;2023-06-19T12:15:14;6.50;;;4.03;;
9214;SDS011;4642;51.364;6.788;2023-06-19T12:17:40;7.70;;;4.40;;
9214;SDS011;4642;51.364;6.788;2023-06-19T12:20:06;4.25;;;3.83;;
9214;SDS011;4642;51.364;6.788;2023-06-19T12:22:33;3.78;;;3.38;;
9214;SDS011;4642;51.364;6.788;2023-06-19T12:24:59;5.00;;;4.05;;
9214;SDS011;4642;51.364;6.788;2023-06-19T12:27:24;5.30;;;3.55;;
9214;SDS011;4642;51.364;6.788;2023-06-19T12:29:50;7.78;;;3.92;;
9214;SDS011;4642;51.364;6.788;2023-06-19T12:32:16;7.15;;;3.60;;
9214;SDS011;4642;51.364;6.788;2023-06-19T12:34:41;10.10;;;3.97;;
9214;SDS011;4642;51.364;6.788;2023-06-19T12:37:11;4.88;;;3.50;;
9214;SDS011;4642;51.364;6.788;2023-06-19T12:39:38;7.78;;;3.42;;
9214;SDS011;4642;51.364;6.788;2023-06-19T12:42:06;6.97;;;3.90;;
9214;SDS011;4642;51.364;6.788;2023-06-19T12:44:31;3.53;;;3.22;;
9214;SDS011;4642;51.364;6.788;2023-06-19T12:46:57;4.28;;;3.40;;
9214;SDS011;4642;51.364;6.788;2023-06-19T12:49:25;5.88;;;3.72;;
9214;SDS011;4642;51.364;6.788;2023-06-19T12:51:50;6.05;;;3.65;;
9214;SDS011;4642;51.364;6.788;2023-06-19T12:54:17;6.05;;;4.28;;
9214;SDS011;4642;51.364;6.788;2023-06-19T12:56:42;4.72;;;4.22;;
9214;SDS011;4642;51.364;6.788;2023-06-19T12:59:09;6.47;;;3.65;;
9214;SDS011;4642;51.364;6.788;2023-06-19T13:01:35;5.63;;;3.92;;
9214;SDS011;4642;51.364;6.788;2023-06-19T13:04:00;4.07;;;3.25;;
9214;SDS011;4642;51.364;6.788;2023-06-19T13:06:26;4.25;;;3.70;;
9214;SDS011;4642;51.364;6.788;2023-06-19T13:08:51;6.25;;;4.18;;
9214;SDS011;4642;51.364;6.788;2023-06-19T13:11:17;7.68;;;3.70;;
9214;SDS011;4642;51.364;6.788;2023-06-19T13:13:42;7.15;;;4.15;;
9214;SDS011;4642;51.364;6.788;2023-06-19T13:16:08;7.82;;;3.78;;
9214;SDS011;4642;51.364;6.788;2023-06-19T13:18:34;7.43;;;3.75;;
9214;SDS011;4642;51.364;6.788;2023-06-19T13:21:00;4.20;;;3.38;;
9214;SDS011;4642;51.364;6.788;2023-06-19T13:23:26;6.38;;;3.58;;
9214;SDS011;4642;51.364;6.788;2023-06-19T13:25:51;4.72;;;3.40;;
9214;SDS011;4642;51.364;6.788;2023-06-19T13:28:17;5.82;;;3.72;;
9214;SDS011;4642;51.364;6.788;2023-06-19T13:30:42;4.57;;;3.65;;
9214;SDS011;4642;51.364;6.788;2023-06-19T13:33:08;4.32;;;3.92;;
9214;SDS011;4642;51.364;6.788;2023-06-19T13:35:34;4.95;;;4.10;;
9214;SDS011;4642;51.364;6.788;2023-06-19T13:38:00;4.43;;;3.25;;
9214;SDS011;4642;51.364;6.788;2023-06-19T13:40:25;4.95;;;3.28;;
9214;SDS011;4642;51.364;6.788;2023-06-19T13:42:51;5.07;;;3.63;;
9214;SDS011;4642;51.364;6.788;2023-06-19T13:45:16;4.32;;;3.72;;
9214;SDS011;4642;51.364;6.788;2023-06-19T13:47:42;4.57;;;3.60;;
9214;SDS011;4642;51.364;6.788;2023-06-19T13:50:08;4.28;;;3.60;;
9214;SDS011;4642;51.364;6.788;2023-06-19T13:52:34;4.43;;;3.70;;
9214;SDS011;4642;51.364;6.788;2023-06-19T13:55:00;5.53;;;3.95;;
9214;SDS011;4642;51.364;6.788;2023-06-19T13:57:27;4.03;;;3.28;;
9214;SDS011;4642;51.364;6.788;2023-06-19T13:59:53;5.47;;;3.35;;
9214;SDS011;4642;51.364;6.788;2023-06-19T14:02:18;5.07;;;3.65;;
9214;SDS011;4642;51.364;6.788;2023-06-19T14:04:44;7.43;;;3.80;;
9214;SDS011;4642;51.364;6.788;2023-06-19T14:07:09;8.40;;;3.75;;
9214;SDS011;4642;51.364;6.788;2023-06-19T14:09:35;6.38;;;3.67;;
9214;SDS011;4642;51.364;6.788;2023-06-19T14:12:01;4.28;;;3.42;;
9214;SDS011;4642;51.364;6.788;2023-06-19T14:14:26;4.03;;;3.20;;
9214;SDS011;4642;51.364;6.788;2023-06-19T14:16:52;4.88;;;3.53;;
9214;SDS011;4642;51.364;6.788;2023-06-19T14:19:17;4.25;;;2.67;;
9214;SDS011;4642;51.364;6.788;2023-06-19T14:21:43;6.93;;;3.47;;
9214;SDS011;4642;51.364;6.788;2023-06-19T14:24:08;4.07;;;3.03;;
9214;SDS011;4642;51.364;6.788;2023-06-19T14:26:34;3.50;;;3.08;;
9214;SDS011;4642;51.364;6.788;2023-06-19T14:28:59;5.95;;;3.40;;
9214;SDS011;4642;51.364;6.788;2023-06-19T14:31:25;3.70;;;3.08;;
9214;SDS011;4642;51.364;6.788;2023-06-19T14:33:51;3.92;;;2.70;;
9214;SDS011;4642;51.364;6.788;2023-06-19T14:36:16;4.53;;;3.25;;
9214;SDS011;4642;51.364;6.788;2023-06-19T14:38:42;5.90;;;3.38;;
9214;SDS011;4642;51.364;6.788;2023-06-19T14:41:07;4.07;;;2.75;;
9214;SDS011;4642;51.364;6.788;2023-06-19T14:43:33;5.25;;;3.20;;
9214;SDS011;4642;51.364;6.788;2023-06-19T14:46:00;3.70;;;3.08;;
9214;SDS011;4642;51.364;6.788;2023-06-19T14:48:28;4.03;;;3.63;;
9214;SDS011;4642;51.364;6.788;2023-06-19T14:50:55;4.50;;;3.28;;
9214;SDS011;4642;51.364;6.788;2023-06-19T14:53:21;5.43;;;3.67;;
9214;SDS011;4642;51.364;6.788;2023-06-19T14:55:46;3.25;;;2.88;;
9214;SDS011;4642;51.364;6.788;2023-06-19T14:58:12;3.80;;;2.80;;
9214;SDS011;4642;51.364;6.788;2023-06-19T15:00:38;3.40;;;2.78;;
9214;SDS011;4642;51.364;6.788;2023-06-19T15:03:04;4.72;;;2.88;;
9214;SDS011;4642;51.364;6.788;2023-06-19T15:05:31;3.95;;;3.55;;
9214;SDS011;4642;51.364;6.788;2023-06-19T15:07:57;6.30;;;3.22;;
9214;SDS011;4642;51.364;6.788;2023-06-19T15:10:23;3.78;;;2.80;;
9214;SDS011;4642;51.364;6.788;2023-06-19T15:12:49;3.70;;;3.22;;